createdAt,value
2023-02-26T00:02:20.491Z,100464.81
2023-02-26T00:04:47.014Z,100467.50
2023-02-26T00:07:13.570Z,100466.84
2023-02-26T00:09:40.029Z,100473.09
2023-02-26T00:12:07.252Z,100471.41
2023-02-26T00:14:34.095Z,100476.69
2023-02-26T00:17:30.522Z,100475.88
2023-02-26T00:19:57.694Z,100474.91
2023-02-26T00:22:24.690Z,100478.94
2023-02-26T00:24:51.375Z,100483.03
2023-02-26T00:27:17.871Z,100485.41
2023-02-26T00:29:44.667Z,100492.22
2023-02-26T00:32:11.815Z,100502.44
2023-02-26T00:34:39.737Z,100497.75
2023-02-26T00:37:21.493Z,100507.84
2023-02-26T00:40:14.605Z,100503.13
2023-02-26T00:42:41.537Z,100510.50
2023-02-26T00:45:09.657Z,100519.91
2023-02-26T00:47:51.481Z,100519.66
2023-02-26T00:50:23.642Z,100525.53
2023-02-26T00:53:22.086Z,100528.00
2023-02-26T00:55:48.568Z,100535.16
2023-02-26T00:58:15.052Z,100524.13
2023-02-26T01:00:41.576Z,100540.94
2023-02-26T01:03:08.462Z,100537.00
2023-02-26T01:05:35.362Z,100540.72
2023-02-26T01:08:12.579Z,100542.50
2023-02-26T01:10:39.662Z,100539.66
2023-02-26T01:13:06.661Z,100541.78
2023-02-26T01:15:33.700Z,100549.22
2023-02-26T01:18:14.267Z,100545.41
2023-02-26T01:20:47.084Z,100539.94
2023-02-26T01:23:21.247Z,100553.75
2023-02-26T01:26:00.995Z,100544.81
2023-02-26T01:28:31.011Z,100548.06
2023-02-26T01:31:02.519Z,100545.38
2023-02-26T01:33:43.045Z,100553.09
2023-02-26T01:36:17.859Z,100552.09
2023-02-26T01:39:02.952Z,100551.47
2023-02-26T01:41:55.298Z,100566.75
2023-02-26T01:44:42.846Z,100562.88
2023-02-26T01:47:18.008Z,100570.19
2023-02-26T01:49:45.076Z,100567.91
2023-02-26T01:52:48.535Z,100572.63
2023-02-26T01:55:19.419Z,100580.78
2023-02-26T01:57:48.576Z,100581.75
2023-02-26T02:00:16.582Z,100575.84
2023-02-26T02:02:43.201Z,100584.59
2023-02-26T02:05:16.811Z,100596.88
2023-02-26T02:07:44.320Z,100593.56
2023-02-26T02:10:11.383Z,100599.97
2023-02-26T02:12:56.891Z,100597.72
2023-02-26T02:15:37.254Z,100603.97
2023-02-26T02:18:20.854Z,100598.94
2023-02-26T02:21:05.892Z,100606.81
2023-02-26T02:23:54.903Z,100603.34
2023-02-26T02:26:40.247Z,100613.75
2023-02-26T02:29:25.352Z,100608.53
2023-02-26T02:32:09.055Z,100611.03
2023-02-26T02:34:51.984Z,100615.38
2023-02-26T02:37:36.710Z,100610.88
2023-02-26T02:40:18.806Z,100610.16
2023-02-26T02:42:57.964Z,100617.84
2023-02-26T02:45:40.873Z,100622.25
2023-02-26T02:48:38.929Z,100620.81
2023-02-26T02:51:17.787Z,100639.16
2023-02-26T02:53:50.445Z,100637.53
2023-02-26T02:56:29.202Z,100641.03
2023-02-26T02:59:02.971Z,100644.56
2023-02-26T03:01:31.215Z,100650.81
2023-02-26T03:04:07.450Z,100652.44
2023-02-26T03:06:34.919Z,100653.34
2023-02-26T03:09:04.245Z,100658.53
2023-02-26T03:11:31.947Z,100660.31
2023-02-26T03:14:00.530Z,100666.50
2023-02-26T03:17:09.013Z,100671.78
2023-02-26T03:20:02.611Z,100669.25
2023-02-26T03:22:45.493Z,100672.03
2023-02-26T03:25:28.498Z,100676.56
2023-02-26T03:28:18.692Z,100680.00
2023-02-26T03:31:00.145Z,100675.72
2023-02-26T03:33:30.168Z,100688.72
2023-02-26T03:36:12.200Z,100683.59
2023-02-26T03:38:55.233Z,100695.06
2023-02-26T03:41:32.380Z,100693.25
2023-02-26T03:44:03.289Z,100700.34
2023-02-26T03:46:35.852Z,100694.50
2023-02-26T03:49:09.108Z,100717.16
2023-02-26T03:51:38.596Z,100712.16
2023-02-26T03:54:46.846Z,100715.72
2023-02-26T03:57:33.422Z,100715.06
2023-02-26T04:00:38.058Z,100712.78
2023-02-26T04:03:26.931Z,100722.41
2023-02-26T04:05:54.329Z,100724.91
2023-02-26T04:08:22.423Z,100729.31
2023-02-26T04:11:11.356Z,100725.03
2023-02-26T04:13:37.887Z,100732.91
2023-02-26T04:16:04.805Z,100735.44
2023-02-26T04:18:31.587Z,100743.06
2023-02-26T04:20:58.137Z,100744.78
2023-02-26T04:23:24.654Z,100745.59
2023-02-26T04:25:51.707Z,100744.78
2023-02-26T04:28:18.569Z,100756.00
2023-02-26T04:30:46.826Z,100755.84
2023-02-26T04:33:15.775Z,100766.25
2023-02-26T04:35:43.110Z,100757.47
2023-02-26T04:38:09.716Z,100763.47
2023-02-26T04:40:36.439Z,100773.09
2023-02-26T04:43:04.757Z,100776.47
2023-02-26T04:45:35.764Z,100780.81
2023-02-26T04:48:02.336Z,100783.41
2023-02-26T04:50:29.117Z,100785.19
2023-02-26T04:52:57.284Z,100787.00
2023-02-26T04:55:24.541Z,100784.47
2023-02-26T04:57:51.078Z,100798.38
2023-02-26T05:00:22.195Z,100793.16
2023-02-26T05:02:48.973Z,100797.50
2023-02-26T05:05:15.475Z,100798.28
2023-02-26T05:07:41.929Z,100796.59
2023-02-26T05:10:09.373Z,100801.88
2023-02-26T05:12:35.877Z,100797.50
2023-02-26T05:15:02.763Z,100806.09
2023-02-26T05:17:29.345Z,100810.31
2023-02-26T05:19:55.789Z,100817.06
2023-02-26T05:22:22.475Z,100816.97
2023-02-26T05:24:49.812Z,100827.31
2023-02-26T05:27:16.475Z,100830.75
2023-02-26T05:29:46.032Z,100835.84
2023-02-26T05:32:14.456Z,100843.41
2023-02-26T05:34:41.153Z,100831.78
2023-02-26T05:37:07.686Z,100846.19
2023-02-26T05:39:34.224Z,100845.88
2023-02-26T05:42:00.754Z,100852.50
2023-02-26T05:44:27.588Z,100859.13
2023-02-26T05:46:54.223Z,100864.88
2023-02-26T05:49:21.031Z,100864.44
2023-02-26T05:51:47.543Z,100871.00
2023-02-26T05:54:13.977Z,100882.03
2023-02-26T05:56:40.531Z,100881.75
2023-02-26T05:59:07.051Z,100884.97
2023-02-26T06:01:34.097Z,100896.72
2023-02-26T06:04:00.705Z,100901.63
2023-02-26T06:06:27.432Z,100893.66
2023-02-26T06:08:54.103Z,100896.09
2023-02-26T06:11:20.771Z,100909.88
2023-02-26T06:13:47.312Z,100907.91
2023-02-26T06:16:13.908Z,100915.59
2023-02-26T06:18:40.474Z,100912.91
2023-02-26T06:21:07.343Z,100924.91
2023-02-26T06:23:33.890Z,100925.72
2023-02-26T06:26:00.400Z,100924.00
2023-02-26T06:28:27.178Z,100930.13
2023-02-26T06:30:53.981Z,100942.31
2023-02-26T06:33:21.120Z,100943.13
2023-02-26T06:35:47.722Z,100947.53
2023-02-26T06:38:14.503Z,100946.78
2023-02-26T06:40:41.110Z,100958.88
2023-02-26T06:43:07.702Z,100942.59
2023-02-26T06:45:34.265Z,100960.78
2023-02-26T06:48:00.784Z,100960.97
2023-02-26T06:50:27.329Z,100967.25
2023-02-26T06:52:53.850Z,100969.97
2023-02-26T06:55:21.963Z,100964.84
2023-02-26T06:57:48.473Z,100972.03
2023-02-26T07:00:15.351Z,100970.41
2023-02-26T07:02:41.865Z,100976.59
2023-02-26T07:05:08.933Z,100990.81
2023-02-26T07:07:35.427Z,100992.59
2023-02-26T07:10:01.933Z,100998.16
2023-02-26T07:12:28.388Z,101003.63
2023-02-26T07:14:54.806Z,101004.09
2023-02-26T07:17:21.382Z,101011.63
2023-02-26T07:19:48.883Z,101021.00
2023-02-26T07:22:16.225Z,101020.53
2023-02-26T07:24:42.920Z,101024.97
2023-02-26T07:27:10.148Z,101024.88
2023-02-26T07:29:36.850Z,101038.75
2023-02-26T07:32:04.566Z,101042.34
2023-02-26T07:34:32.140Z,101044.16
2023-02-26T07:36:59.181Z,101047.75
2023-02-26T07:39:27.140Z,101048.72
2023-02-26T07:41:54.647Z,101054.22
2023-02-26T07:44:21.886Z,101068.31
2023-02-26T07:46:48.493Z,101067.50
2023-02-26T07:49:15.057Z,101064.09
2023-02-26T07:51:45.914Z,101074.69
2023-02-26T07:54:13.981Z,101084.47
2023-02-26T07:56:42.793Z,101087.34
2023-02-26T07:59:09.647Z,101094.44
2023-02-26T08:01:36.544Z,101098.03
2023-02-26T08:04:03.655Z,101102.72
2023-02-26T08:06:30.421Z,101102.97
2023-02-26T08:08:56.899Z,101109.38
2023-02-26T08:11:23.480Z,101107.31
2023-02-26T08:13:49.922Z,101109.47
2023-02-26T08:16:16.489Z,101110.63
2023-02-26T08:18:43.146Z,101111.97
2023-02-26T08:21:10.731Z,101109.81
2023-02-26T08:23:37.615Z,101117.28
2023-02-26T08:26:07.074Z,101118.44
2023-02-26T08:28:34.543Z,101128.13
2023-02-26T08:31:01.599Z,101128.63
2023-02-26T08:33:29.384Z,101124.06
2023-02-26T08:35:59.314Z,101131.94
2023-02-26T08:38:27.880Z,101133.72
2023-02-26T08:40:54.868Z,101138.94
2023-02-26T08:43:21.498Z,101145.75
2023-02-26T08:45:48.126Z,101153.50
2023-02-26T08:48:15.118Z,101157.66
2023-02-26T08:50:41.668Z,101159.28
2023-02-26T08:53:08.243Z,101168.78
2023-02-26T08:55:35.059Z,101171.41
2023-02-26T08:58:01.676Z,101177.44
2023-02-26T09:00:28.746Z,101172.84
2023-02-26T09:02:55.297Z,101171.94
2023-02-26T09:05:23.557Z,101178.06
2023-02-26T09:07:50.080Z,101171.94
2023-02-26T09:10:17.307Z,101188.41
2023-02-26T09:12:44.712Z,101186.63
2023-02-26T09:15:11.996Z,101185.00
2023-02-26T09:17:39.045Z,101199.00
2023-02-26T09:20:06.526Z,101189.56
2023-02-26T09:22:33.277Z,101194.88
2023-02-26T09:24:59.820Z,101190.72
2023-02-26T09:27:26.982Z,101197.75
2023-02-26T09:29:53.476Z,101197.22
2023-02-26T09:32:20.595Z,101199.19
2023-02-26T09:34:47.132Z,101205.47
2023-02-26T09:37:13.575Z,101213.72
2023-02-26T09:39:40.068Z,101207.31
2023-02-26T09:42:43.813Z,101214.56
2023-02-26T09:45:22.313Z,101218.50
2023-02-26T09:47:52.085Z,101220.38
2023-02-26T09:50:38.679Z,101220.44
2023-02-26T09:53:18.622Z,101225.84
2023-02-26T09:55:47.930Z,101222.56
2023-02-26T09:58:34.192Z,101229.75
2023-02-26T10:01:35.759Z,101223.06
2023-02-26T10:04:21.246Z,101217.22
2023-02-26T10:06:53.850Z,101229.19
2023-02-26T10:09:39.366Z,101228.22
2023-02-26T10:12:12.564Z,101234.13
2023-02-26T10:14:56.386Z,101240.78
2023-02-26T10:17:44.963Z,101253.50
2023-02-26T10:20:29.502Z,101248.16
2023-02-26T10:23:16.187Z,101242.94
2023-02-26T10:25:47.946Z,101248.00
2023-02-26T10:28:14.487Z,101255.22
2023-02-26T10:30:49.930Z,101259.78
2023-02-26T10:33:35.114Z,101256.13
2023-02-26T10:36:51.139Z,101261.66
2023-02-26T10:39:33.177Z,101260.47
2023-02-26T10:42:11.215Z,101264.13
2023-02-26T10:45:13.304Z,101268.66
2023-02-26T10:47:53.879Z,101262.75
2023-02-26T10:50:23.501Z,101270.03
2023-02-26T10:52:52.386Z,101282.59
2023-02-26T10:55:27.949Z,101282.78
2023-02-26T10:58:05.156Z,101277.31
2023-02-26T11:00:35.236Z,101280.66
2023-02-26T11:03:04.145Z,101276.09
2023-02-26T11:05:32.886Z,101283.00
2023-02-26T11:08:09.834Z,101273.53
2023-02-26T11:10:50.662Z,101281.47
2023-02-26T11:13:17.675Z,101273.81
2023-02-26T11:15:48.748Z,101289.72
2023-02-26T11:18:21.358Z,101285.63
2023-02-26T11:20:48.988Z,101286.13
2023-02-26T11:23:21.953Z,101289.25
2023-02-26T11:25:55.230Z,101296.44
2023-02-26T11:28:35.811Z,101299.31
2023-02-26T11:31:09.451Z,101289.09
2023-02-26T11:33:39.825Z,101308.22
2023-02-26T11:36:11.430Z,101303.66
2023-02-26T11:38:38.208Z,101296.44
2023-02-26T11:41:06.272Z,101296.38
2023-02-26T11:43:44.469Z,101293.91
2023-02-26T11:46:12.388Z,101298.06
2023-02-26T11:48:40.830Z,101295.81
2023-02-26T11:51:12.326Z,101293.97
2023-02-26T11:53:49.295Z,101294.19
2023-02-26T11:56:25.479Z,101291.88
2023-02-26T11:58:55.537Z,101294.75
2023-02-26T12:01:27.804Z,101298.50
2023-02-26T12:04:00.750Z,101299.22
2023-02-26T12:06:27.248Z,101296.44
2023-02-26T12:08:54.160Z,101300.63
2023-02-26T12:11:34.370Z,101290.22
2023-02-26T12:14:22.455Z,101294.81
2023-02-26T12:17:10.834Z,101298.75
2023-02-26T12:19:54.521Z,101299.81
2023-02-26T12:22:54.620Z,101295.31
2023-02-26T12:25:40.864Z,101297.09
2023-02-26T12:28:25.065Z,101303.28
2023-02-26T12:30:59.458Z,101303.56
2023-02-26T12:33:28.790Z,101305.41
2023-02-26T12:36:05.835Z,101313.59
2023-02-26T12:38:41.431Z,101307.72
2023-02-26T12:41:10.831Z,101311.38
2023-02-26T12:43:52.600Z,101300.09
2023-02-26T12:46:35.686Z,101301.00
2023-02-26T12:49:27.094Z,101312.59
2023-02-26T12:52:23.711Z,101308.25
2023-02-26T12:55:11.544Z,101311.94
2023-02-26T12:57:52.782Z,101307.69
2023-02-26T13:00:48.585Z,101309.66
2023-02-26T13:03:55.310Z,101310.13
2023-02-26T13:06:39.629Z,101304.22
2023-02-26T13:09:22.627Z,101303.47
2023-02-26T13:12:24.907Z,101305.28
2023-02-26T13:15:23.661Z,101328.66
2023-02-26T13:18:01.413Z,101298.81
2023-02-26T13:20:29.141Z,101305.59
2023-02-26T13:23:03.442Z,101296.06
2023-02-26T13:25:48.841Z,101293.56
2023-02-26T13:28:33.462Z,101292.78
2023-02-26T13:31:01.795Z,101291.28
2023-02-26T13:33:31.676Z,101304.59
2023-02-26T13:36:00.368Z,101302.06
2023-02-26T13:38:53.165Z,101306.47
2023-02-26T13:41:34.277Z,101303.84
2023-02-26T13:44:06.634Z,101303.78
2023-02-26T13:46:36.114Z,101309.09
2023-02-26T13:49:05.517Z,101306.53
2023-02-26T13:51:44.122Z,101308.19
2023-02-26T13:54:17.425Z,101310.66
2023-02-26T13:56:43.955Z,101293.06
2023-02-26T13:59:13.603Z,101300.13
2023-02-26T14:01:46.800Z,101292.25
2023-02-26T14:04:22.690Z,101299.34
2023-02-26T14:06:51.847Z,101309.09
2023-02-26T14:09:21.237Z,101300.41
2023-02-26T14:12:23.606Z,101301.31
2023-02-26T14:14:59.986Z,101302.34
2023-02-26T14:17:37.942Z,101295.63
2023-02-26T14:20:26.521Z,101309.75
2023-02-26T14:23:11.613Z,101309.69
2023-02-26T14:25:50.900Z,101305.28
2023-02-26T14:28:26.812Z,101300.06
2023-02-26T14:31:11.032Z,101295.94
2023-02-26T14:33:46.555Z,101307.00
2023-02-26T14:36:26.243Z,101314.28
2023-02-26T14:38:54.159Z,101303.13
2023-02-26T14:41:32.747Z,101306.75
2023-02-26T14:44:12.142Z,101306.31
2023-02-26T14:46:39.337Z,101316.06
2023-02-26T14:49:13.393Z,101317.94
2023-02-26T14:52:05.965Z,101318.56
2023-02-26T14:54:46.137Z,101331.84
2023-02-26T14:57:18.814Z,101326.44
2023-02-26T15:00:10.076Z,101328.63
2023-02-26T15:03:12.204Z,101322.00
2023-02-26T15:05:53.638Z,101326.69
2023-02-26T15:08:46.473Z,101325.34
2023-02-26T15:11:41.032Z,101320.78
2023-02-26T15:14:29.649Z,101328.94
2023-02-26T15:17:09.922Z,101325.84
2023-02-26T15:20:05.541Z,101336.34
2023-02-26T15:23:06.324Z,101346.31
2023-02-26T15:25:36.836Z,101346.53
2023-02-26T15:28:05.771Z,101342.56
2023-02-26T15:30:34.491Z,101344.34
2023-02-26T15:33:10.885Z,101336.72
2023-02-26T15:35:37.348Z,101350.03
2023-02-26T15:38:05.844Z,101343.06
2023-02-26T15:40:35.858Z,101349.22
2023-02-26T15:43:05.055Z,101339.66
2023-02-26T15:45:38.046Z,101341.44
2023-02-26T15:48:08.748Z,101348.31
2023-02-26T15:50:40.572Z,101349.97
2023-02-26T15:53:09.456Z,101347.34
2023-02-26T15:55:43.498Z,101356.09
2023-02-26T15:58:10.481Z,101357.75
2023-02-26T16:00:37.101Z,101353.34
2023-02-26T16:03:04.817Z,101358.50
2023-02-26T16:05:32.186Z,101361.94
2023-02-26T16:07:58.772Z,101371.38
2023-02-26T16:10:42.005Z,101369.50
2023-02-26T16:13:14.828Z,101370.88
2023-02-26T16:15:42.314Z,101372.22
2023-02-26T16:18:18.292Z,101367.41
2023-02-26T16:20:48.280Z,101379.09
2023-02-26T16:23:25.138Z,101377.63
2023-02-26T16:25:55.446Z,101369.41
2023-02-26T16:28:26.567Z,101385.78
2023-02-26T16:30:55.275Z,101386.44
2023-02-26T16:33:24.408Z,101385.13
2023-02-26T16:36:12.017Z,101391.78
2023-02-26T16:39:10.505Z,101398.25
2023-02-26T16:41:40.243Z,101403.97
2023-02-26T16:44:48.475Z,101401.03
2023-02-26T16:47:15.862Z,101405.13
2023-02-26T16:49:44.224Z,101408.25
2023-02-26T16:52:19.095Z,101412.97
2023-02-26T16:54:55.443Z,101423.84
2023-02-26T16:57:35.373Z,101427.66
2023-02-26T17:00:06.966Z,101434.22
2023-02-26T17:02:36.854Z,101442.78
2023-02-26T17:05:16.812Z,101434.66
2023-02-26T17:07:51.580Z,101432.72
2023-02-26T17:10:40.299Z,101442.81
2023-02-26T17:13:15.304Z,101438.88
2023-02-26T17:15:44.103Z,101441.94
2023-02-26T17:18:10.679Z,101435.41
2023-02-26T17:20:38.115Z,101436.84
2023-02-26T17:23:08.813Z,101440.81
2023-02-26T17:25:39.577Z,101444.03
2023-02-26T17:28:07.239Z,101453.25
2023-02-26T17:30:34.610Z,101445.97
2023-02-26T17:33:03.978Z,101451.72
2023-02-26T17:35:31.369Z,101458.41
2023-02-26T17:37:58.231Z,101455.41
2023-02-26T17:40:31.705Z,101459.47
2023-02-26T17:42:59.938Z,101452.25
2023-02-26T17:45:26.456Z,101454.69
2023-02-26T17:47:53.018Z,101463.06
2023-02-26T17:50:26.641Z,101461.97
2023-02-26T17:52:53.126Z,101454.69
2023-02-26T17:55:19.961Z,101457.03
2023-02-26T17:57:46.609Z,101474.28
2023-02-26T18:00:15.712Z,101474.22
2023-02-26T18:02:42.344Z,101477.34
2023-02-26T18:05:09.264Z,101478.88
2023-02-26T18:07:37.077Z,101484.63
2023-02-26T18:10:04.016Z,101492.22
2023-02-26T18:12:30.694Z,101490.25
2023-02-26T18:14:57.237Z,101487.44
2023-02-26T18:17:31.021Z,101485.44
2023-02-26T18:19:57.953Z,101493.78
2023-02-26T18:22:25.935Z,101498.72
2023-02-26T18:24:53.562Z,101496.72
2023-02-26T18:27:23.229Z,101499.84
2023-02-26T18:29:49.848Z,101503.19
2023-02-26T18:32:22.207Z,101503.78
2023-02-26T18:34:50.799Z,101503.59
2023-02-26T18:37:23.700Z,101512.03
2023-02-26T18:39:50.604Z,101519.63
2023-02-26T18:42:16.980Z,101508.94
2023-02-26T18:44:43.384Z,101510.44
2023-02-26T18:47:10.585Z,101514.47
2023-02-26T18:49:36.990Z,101515.97
2023-02-26T18:52:03.517Z,101518.28
2023-02-26T18:54:29.949Z,101525.91
2023-02-26T18:56:56.467Z,101520.47
2023-02-26T18:59:23.249Z,101523.69
2023-02-26T19:01:50.434Z,101529.59
2023-02-26T19:04:16.980Z,101533.03
2023-02-26T19:06:43.516Z,101533.03
2023-02-26T19:09:10.026Z,101531.09
2023-02-26T19:11:38.072Z,101541.34
2023-02-26T19:14:05.513Z,101540.31
2023-02-26T19:16:35.167Z,101542.94
2023-02-26T19:19:05.127Z,101549.75
2023-02-26T19:21:36.208Z,101545.13
2023-02-26T19:24:06.356Z,101546.81
2023-02-26T19:26:33.926Z,101564.16
2023-02-26T19:29:00.807Z,101565.75
2023-02-26T19:31:27.630Z,101569.16
2023-02-26T19:33:54.379Z,101563.75
2023-02-26T19:36:21.947Z,101569.78
2023-02-26T19:38:51.479Z,101566.94
2023-02-26T19:41:19.772Z,101570.38
2023-02-26T19:43:49.069Z,101571.97
2023-02-26T19:46:15.817Z,101569.25
2023-02-26T19:48:42.445Z,101576.97
2023-02-26T19:51:09.792Z,101575.16
2023-02-26T19:53:36.724Z,101579.34
2023-02-26T19:56:04.884Z,101587.16
2023-02-26T19:58:31.738Z,101593.19
2023-02-26T20:00:59.819Z,101592.16
2023-02-26T20:03:27.112Z,101593.75
2023-02-26T20:05:54.030Z,101597.19
2023-02-26T20:08:21.880Z,101598.78
2023-02-26T20:10:53.580Z,101606.47
2023-02-26T20:13:20.681Z,101607.16
2023-02-26T20:15:49.590Z,101601.75
2023-02-26T20:18:17.067Z,101609.34
2023-02-26T20:20:43.810Z,101603.94
2023-02-26T20:23:10.986Z,101611.75
2023-02-26T20:25:38.360Z,101619.44
2023-02-26T20:28:05.118Z,101615.84
2023-02-26T20:30:32.742Z,101620.03
2023-02-26T20:32:59.301Z,101615.63
2023-02-26T20:35:26.052Z,101611.09
2023-02-26T20:37:52.566Z,101619.59
2023-02-26T20:40:19.875Z,101619.38
2023-02-26T20:42:46.343Z,101622.66
2023-02-26T20:45:12.917Z,101621.69
2023-02-26T20:47:39.455Z,101620.56
2023-02-26T20:50:06.670Z,101623.84
2023-02-26T20:52:33.185Z,101622.03
2023-02-26T20:54:59.661Z,101624.41
2023-02-26T20:57:26.151Z,101625.22
2023-02-26T20:59:52.640Z,101631.91
2023-02-26T21:02:20.827Z,101639.72
2023-02-26T21:04:47.800Z,101629.19
2023-02-26T21:07:17.648Z,101636.22
2023-02-26T21:09:47.791Z,101635.19
2023-02-26T21:12:15.691Z,101641.06
2023-02-26T21:14:42.768Z,101635.66
2023-02-26T21:17:09.335Z,101643.38
2023-02-26T21:19:35.828Z,101645.75
2023-02-26T21:22:02.811Z,101648.13
2023-02-26T21:24:29.995Z,101657.50
2023-02-26T21:26:56.500Z,101656.53
2023-02-26T21:29:23.072Z,101659.91
2023-02-26T21:31:53.596Z,101652.78
2023-02-26T21:34:33.048Z,101655.38
2023-02-26T21:37:01.631Z,101657.97
2023-02-26T21:39:30.301Z,101656.19
2023-02-26T21:41:59.196Z,101654.13
2023-02-26T21:44:27.365Z,101662.84
2023-02-26T21:46:53.895Z,101657.44
2023-02-26T21:49:20.362Z,101658.22
2023-02-26T21:51:46.826Z,101655.41
2023-02-26T21:54:13.660Z,101656.09
2023-02-26T21:56:40.169Z,101660.41
2023-02-26T21:59:06.626Z,101664.59
2023-02-26T22:01:33.175Z,101662.66
2023-02-26T22:03:59.872Z,101670.34
2023-02-26T22:06:27.324Z,101665.03
2023-02-26T22:08:53.924Z,101662.34
2023-02-26T22:11:20.607Z,101661.31
2023-02-26T22:13:48.635Z,101657.91
2023-02-26T22:16:16.114Z,101661.31
2023-02-26T22:18:42.684Z,101661.31
2023-02-26T22:21:09.475Z,101665.50
2023-02-26T22:23:36.606Z,101661.06
2023-02-26T22:26:03.382Z,101667.84
2023-02-26T22:28:29.816Z,101660.66
2023-02-26T22:30:56.539Z,101670.78
2023-02-26T22:33:24.042Z,101680.31
2023-02-26T22:35:51.061Z,101681.88
2023-02-26T22:38:17.675Z,101673.84
2023-02-26T22:40:44.286Z,101679.84
2023-02-26T22:43:10.823Z,101685.03
2023-02-26T22:45:38.808Z,101697.00
2023-02-26T22:48:06.730Z,101694.31
2023-02-26T22:50:33.840Z,101700.41
2023-02-26T22:53:00.356Z,101698.59
2023-02-26T22:55:27.597Z,101699.28
2023-02-26T22:57:54.115Z,101700.16
2023-02-26T23:00:21.053Z,101706.06
2023-02-26T23:02:49.330Z,101701.63
2023-02-26T23:05:16.639Z,101712.84
2023-02-26T23:07:43.769Z,101712.59
2023-02-26T23:10:13.711Z,101716.91
2023-02-26T23:12:40.322Z,101710.69
2023-02-26T23:15:08.084Z,101710.56
2023-02-26T23:17:34.830Z,101723.44
2023-02-26T23:20:01.425Z,101724.34
2023-02-26T23:22:28.011Z,101712.38
2023-02-26T23:24:54.498Z,101718.25
2023-02-26T23:27:21.260Z,101725.03
2023-02-26T23:29:47.881Z,101715.28
2023-02-26T23:32:15.075Z,101722.06
2023-02-26T23:34:41.653Z,101723.75
2023-02-26T23:37:08.198Z,101715.75
2023-02-26T23:39:34.676Z,101715.53
2023-02-26T23:42:01.331Z,101716.97
2023-02-26T23:44:27.837Z,101722.94
2023-02-26T23:46:54.548Z,101726.34
2023-02-26T23:49:21.721Z,101715.69
2023-02-26T23:51:48.178Z,101722.63
2023-02-26T23:54:14.671Z,101723.28
2023-02-26T23:56:41.635Z,101723.28
2023-02-26T23:59:08.371Z,101727.44
